Time;durP1;ratioP1;P1;durP2;ratioP2;P2;SDS_P1;SDS_P2;PMS_P1;PMS_P2;Temp;Humidity;BMP_temperature;BMP_pressure;BME280_temperature;BME280_humidity;BME280_pressure;Samples;Min_cycle;Max_cycle;Signal;HPM_P1;HPM_P2
2022/03/22 00:00:24;;;;;;;14.43;8.37;;;;;;;;;;5114993;28;20232;-71
2022/03/22 00:02:53;;;;;;;14.67;8.23;;;;;;;;;;5114485;28;20702;-71
2022/03/22 00:05:23;;;;;;;12.23;8.43;;;;;;;;;;5104149;28;20270;-70
2022/03/22 00:07:55;;;;;;;11.30;8.10;;;;;;;;;;5112947;28;20205;-71
2022/03/22 00:10:23;;;;;;;13.97;8.87;;;;;;;;;;5102734;28;20863;-70
2022/03/22 00:12:51;;;;;;;14.17;8.07;;;;;;;;;;5112897;28;20220;-70
2022/03/22 00:15:19;;;;;;;13.87;8.23;;;;;;;;;;5103114;28;20670;-70
2022/03/22 00:18:07;;;;;;;16.93;7.83;;;;;;;;;;5111331;28;20708;-70
2022/03/22 00:20:37;;;;;;;13.57;8.07;;;;;;;;;;5113458;28;20208;-71
2022/03/22 00:23:05;;;;;;;11.27;7.40;;;;;;;;;;5112974;28;20201;-70
2022/03/22 00:25:33;;;;;;;15.10;8.43;;;;;;;;;;5111005;28;20259;-70
2022/03/22 00:28:01;;;;;;;14.73;8.40;;;;;;;;;;5108210;28;20656;-70
2022/03/22 00:30:31;;;;;;;16.33;9.00;;;;;;;;;;5114600;28;20212;-70
2022/03/22 00:33:02;;;;;;;14.17;7.93;;;;;;;;;;5107161;28;20543;-70
2022/03/22 00:35:30;;;;;;;17.80;9.17;;;;;;;;;;5110338;28;20299;-67
2022/03/22 00:38:00;;;;;;;11.67;8.30;;;;;;;;;;5108015;28;20260;-71
2022/03/22 00:40:28;;;;;;;11.77;7.70;;;;;;;;;;5102036;28;20279;-74
2022/03/22 00:42:57;;;;;;;12.63;7.83;;;;;;;;;;5103298;28;20288;-73
2022/03/22 00:45:27;;;;;;;13.03;7.80;;;;;;;;;;5110735;28;20308;-74
2022/03/22 00:47:55;;;;;;;12.20;7.80;;;;;;;;;;5107397;28;20257;-74
2022/03/22 00:50:26;;;;;;;14.50;7.17;;;;;;;;;;5101044;28;20240;-74
2022/03/22 00:52:54;;;;;;;13.53;8.40;;;;;;;;;;5104873;28;20200;-73
2022/03/22 00:55:27;;;;;;;9.27;7.07;;;;;;;;;;5100755;28;20610;-73
2022/03/22 00:57:55;;;;;;;9.53;6.50;;;;;;;;;;5108670;28;20278;-74
2022/03/22 01:00:25;;;;;;;12.03;6.57;;;;;;;;;;5109387;28;20237;-74
2022/03/22 01:02:55;;;;;;;14.73;6.80;;;;;;;;;;5112681;28;20209;-74
2022/03/22 01:05:23;;;;;;;18.10;6.93;;;;;;;;;;5112111;28;20563;-74
2022/03/22 01:07:52;;;;;;;12.40;6.10;;;;;;;;;;5101894;28;20225;-73
2022/03/22 01:10:21;;;;;;;11.13;5.90;;;;;;;;;;5112423;28;20225;-74
2022/03/22 01:12:51;;;;;;;12.97;6.50;;;;;;;;;;5107963;28;20205;-74
2022/03/22 01:15:19;;;;;;;10.43;6.30;;;;;;;;;;5101432;28;20221;-74
2022/03/22 01:17:49;;;;;;;12.33;6.83;;;;;;;;;;5110952;28;20307;-74
2022/03/22 01:20:19;;;;;;;11.00;6.00;;;;;;;;;;5107732;28;20683;-74
2022/03/22 01:22:47;;;;;;;15.10;6.80;;;;;;;;;;5101535;28;20202;-74
2022/03/22 01:25:16;;;;;;;11.57;6.20;;;;;;;;;;5109169;28;20240;-74
2022/03/22 01:27:46;;;;;;;15.00;6.33;;;;;;;;;;5108973;28;20232;-74
2022/03/22 01:30:16;;;;;;;11.13;6.77;;;;;;;;;;5100684;28;20260;-74
2022/03/22 01:32:44;;;;;;;8.60;6.03;;;;;;;;;;5100462;28;20233;-74
2022/03/22 01:35:16;;;;;;;10.27;6.47;;;;;;;;;;5116508;28;20217;-74
2022/03/22 01:37:47;;;;;;;8.27;6.30;;;;;;;;;;5105533;28;20217;-74
2022/03/22 01:40:15;;;;;;;8.13;6.03;;;;;;;;;;5103362;28;20205;-74
2022/03/22 01:42:44;;;;;;;8.43;6.07;;;;;;;;;;5106011;28;20269;-74
2022/03/22 01:45:12;;;;;;;9.87;7.00;;;;;;;;;;5108805;28;20279;-74
2022/03/22 01:47:47;;;;;;;12.97;6.93;;;;;;;;;;5100947;28;20198;-74
2022/03/22 01:50:15;;;;;;;10.40;5.87;;;;;;;;;;5111239;28;20201;-74
2022/03/22 01:52:44;;;;;;;12.37;6.27;;;;;;;;;;5105946;28;20281;-74
2022/03/22 01:55:13;;;;;;;10.50;6.13;;;;;;;;;;5108677;28;20261;-74
2022/03/22 01:57:41;;;;;;;10.67;5.93;;;;;;;;;;5100556;28;20256;-74
2022/03/22 02:00:11;;;;;;;11.57;6.47;;;;;;;;;;5112090;28;20236;-72
2022/03/22 02:08:13;;;;;;;9.63;6.17;;;;;;;;;;5105628;28;20252;-74
2022/03/22 02:10:41;;;;;;;11.17;6.67;;;;;;;;;;5115620;28;20200;-74
2022/03/22 02:13:09;;;;;;;8.80;5.70;;;;;;;;;;5115590;28;20228;-74
2022/03/22 02:15:37;;;;;;;8.97;6.63;;;;;;;;;;5115222;28;20248;-74
2022/03/22 02:18:05;;;;;;;10.50;5.73;;;;;;;;;;5108081;28;20662;-73
2022/03/22 02:20:37;;;;;;;12.97;6.40;;;;;;;;;;5115694;28;20252;-74
2022/03/22 02:23:06;;;;;;;9.40;5.87;;;;;;;;;;5107738;28;20200;-75
2022/03/22 02:25:36;;;;;;;8.97;5.30;;;;;;;;;;5108013;28;20226;-74
2022/03/22 02:28:05;;;;;;;10.20;6.20;;;;;;;;;;5112160;28;20205;-74
2022/03/22 02:30:33;;;;;;;14.07;6.07;;;;;;;;;;5111005;28;20668;-74
2022/03/22 02:33:01;;;;;;;12.17;7.00;;;;;;;;;;5111525;28;20193;-74
2022/03/22 02:35:30;;;;;;;8.43;5.97;;;;;;;;;;5114253;28;20244;-74
2022/03/22 02:37:58;;;;;;;10.50;6.37;;;;;;;;;;5105262;28;20213;-74
2022/03/22 02:40:27;;;;;;;10.97;5.80;;;;;;;;;;5107717;28;20265;-75
2022/03/22 02:42:59;;;;;;;10.93;6.57;;;;;;;;;;5113460;28;20225;-74
2022/03/22 02:45:28;;;;;;;11.07;6.60;;;;;;;;;;5103851;28;20252;-74
2022/03/22 02:47:56;;;;;;;8.93;5.63;;;;;;;;;;5110975;28;20193;-74
2022/03/22 02:50:24;;;;;;;12.13;6.70;;;;;;;;;;5114739;28;20232;-74
2022/03/22 02:52:52;;;;;;;9.20;6.23;;;;;;;;;;5119683;28;20676;-74
2022/03/22 02:55:21;;;;;;;10.03;6.17;;;;;;;;;;5113893;28;20711;-74
2022/03/22 02:57:49;;;;;;;12.53;5.70;;;;;;;;;;5114913;28;20197;-74
2022/03/22 03:00:19;;;;;;;8.53;6.00;;;;;;;;;;5114831;28;20207;-74
2022/03/22 03:02:48;;;;;;;13.73;6.50;;;;;;;;;;5101177;28;20194;-74
2022/03/22 03:05:17;;;;;;;9.20;7.17;;;;;;;;;;5116182;28;20224;-74
2022/03/22 03:07:45;;;;;;;7.07;5.47;;;;;;;;;;5102098;28;20210;-74
2022/03/22 03:10:13;;;;;;;9.47;5.87;;;;;;;;;;5107885;28;20223;-74
2022/03/22 03:12:41;;;;;;;10.60;6.33;;;;;;;;;;5110567;28;20228;-74
2022/03/22 03:15:10;;;;;;;10.13;6.73;;;;;;;;;;5114895;28;20240;-74
2022/03/22 03:17:39;;;;;;;11.80;6.33;;;;;;;;;;5111297;28;20202;-74
2022/03/22 03:20:08;;;;;;;9.47;5.60;;;;;;;;;;5114614;28;20252;-74
2022/03/22 03:22:37;;;;;;;9.37;6.10;;;;;;;;;;5106252;28;20232;-74
2022/03/22 03:25:06;;;;;;;9.17;5.87;;;;;;;;;;5106133;28;20635;-74
2022/03/22 03:27:34;;;;;;;8.43;5.03;;;;;;;;;;5106784;28;20208;-74
2022/03/22 03:30:04;;;;;;;11.47;5.90;;;;;;;;;;5102732;28;20239;-74
2022/03/22 03:32:32;;;;;;;9.37;5.97;;;;;;;;;;5108010;28;20306;-74
2022/03/22 03:35:02;;;;;;;9.93;6.30;;;;;;;;;;5113296;28;20224;-74
2022/03/22 03:37:32;;;;;;;8.57;5.87;;;;;;;;;;5114621;28;20228;-74
2022/03/22 03:40:00;;;;;;;10.93;6.33;;;;;;;;;;5113159;28;20578;-74
2022/03/22 03:42:28;;;;;;;13.77;5.90;;;;;;;;;;5112765;28;20642;-74
2022/03/22 03:47:41;;;;;;;10.33;5.23;;;;;;;;;;5108954;28;20220;-74
2022/03/22 03:50:11;;;;;;;11.27;6.10;;;;;;;;;;5111644;28;20205;-74
2022/03/22 03:52:39;;;;;;;11.33;6.00;;;;;;;;;;5107276;28;20253;-75
2022/03/22 03:55:08;;;;;;;9.40;5.93;;;;;;;;;;5113620;28;20239;-73
2022/03/22 03:57:36;;;;;;;8.53;5.70;;;;;;;;;;5113992;28;20652;-73
2022/03/22 04:00:05;;;;;;;10.10;5.37;;;;;;;;;;5112206;28;20259;-73
2022/03/22 04:02:33;;;;;;;11.33;5.77;;;;;;;;;;5110172;28;20232;-73
2022/03/22 04:05:01;;;;;;;6.33;5.17;;;;;;;;;;5112888;28;20592;-72
2022/03/22 04:07:30;;;;;;;8.60;5.50;;;;;;;;;;5107019;28;20229;-73
2022/03/22 04:09:58;;;;;;;8.73;5.57;;;;;;;;;;5109742;28;20272;-73
2022/03/22 04:12:26;;;;;;;8.10;5.37;;;;;;;;;;5110023;28;20266;-73
2022/03/22 04:14:54;;;;;;;12.03;5.70;;;;;;;;;;5113625;28;20229;-72
2022/03/22 04:17:22;;;;;;;8.07;6.30;;;;;;;;;;5105968;28;20683;-73
2022/03/22 04:19:50;;;;;;;10.27;5.63;;;;;;;;;;5108250;28;20253;-73
2022/03/22 04:22:18;;;;;;;8.00;5.63;;;;;;;;;;5110904;28;20235;-73
2022/03/22 04:24:48;;;;;;;11.27;5.87;;;;;;;;;;5101675;28;20280;-73
2022/03/22 04:32:47;;;;;;;8.57;6.00;;;;;;;;;;5106593;28;20289;-75
2022/03/22 04:35:17;;;;;;;9.27;5.50;;;;;;;;;;5112069;28;20225;-74
2022/03/22 04:37:47;;;;;;;11.47;6.37;;;;;;;;;;5109715;27;20280;-74
2022/03/22 04:40:17;;;;;;;9.80;6.07;;;;;;;;;;5116280;28;20217;-74
2022/03/22 04:42:45;;;;;;;10.73;5.43;;;;;;;;;;5116401;28;20201;-74
2022/03/22 04:45:13;;;;;;;9.63;5.93;;;;;;;;;;5114345;28;20228;-74
2022/03/22 04:47:45;;;;;;;9.90;5.87;;;;;;;;;;5113977;28;20208;-74
2022/03/22 04:50:14;;;;;;;9.40;5.77;;;;;;;;;;5116090;28;20552;-74
2022/03/22 04:58:14;;;;;;;11.70;6.00;;;;;;;;;;5103349;28;20236;-74
2022/03/22 05:00:42;;;;;;;12.23;6.23;;;;;;;;;;5103609;28;20217;-75
2022/03/22 05:03:10;;;;;;;10.77;5.83;;;;;;;;;;5101419;28;20201;-74
2022/03/22 05:08:23;;;;;;;8.53;5.60;;;;;;;;;;5101309;28;20285;-74
2022/03/22 05:10:55;;;;;;;10.00;5.73;;;;;;;;;;5099820;28;20232;-74
2022/03/22 05:13:23;;;;;;;10.60;6.00;;;;;;;;;;5108890;28;20232;-74
2022/03/22 05:15:51;;;;;;;9.60;6.17;;;;;;;;;;5111264;28;20273;-74
2022/03/22 05:18:20;;;;;;;7.83;5.83;;;;;;;;;;5113890;28;20288;-74
2022/03/22 05:20:48;;;;;;;11.60;5.90;;;;;;;;;;5113515;28;20222;-74
2022/03/22 05:23:17;;;;;;;9.40;6.00;;;;;;;;;;5114766;28;20201;-74
2022/03/22 05:25:45;;;;;;;9.23;6.07;;;;;;;;;;5115247;28;20217;-74
2022/03/22 05:28:15;;;;;;;11.67;5.73;;;;;;;;;;5116612;28;20224;-74
2022/03/22 05:30:43;;;;;;;9.80;5.40;;;;;;;;;;5115784;28;20280;-74
2022/03/22 05:33:11;;;;;;;8.43;5.77;;;;;;;;;;5118698;28;20291;-74
2022/03/22 05:35:39;;;;;;;11.30;5.67;;;;;;;;;;5117749;28;20248;-74
2022/03/22 05:38:07;;;;;;;10.57;6.03;;;;;;;;;;5116943;28;20225;-74
2022/03/22 05:40:35;;;;;;;10.10;5.77;;;;;;;;;;5117457;28;20248;-74
2022/03/22 05:43:03;;;;;;;9.47;6.17;;;;;;;;;;5117840;28;20240;-74
2022/03/22 05:45:32;;;;;;;17.73;8.37;;;;;;;;;;5116243;28;20259;-74
2022/03/22 05:48:00;;;;;;;13.87;6.30;;;;;;;;;;5115317;28;20235;-74
2022/03/22 05:50:29;;;;;;;11.67;7.47;;;;;;;;;;5116252;28;20224;-74
2022/03/22 05:52:57;;;;;;;12.60;6.57;;;;;;;;;;5116661;28;20199;-74
2022/03/22 05:55:25;;;;;;;8.40;6.53;;;;;;;;;;5116613;28;20217;-74
2022/03/22 05:57:53;;;;;;;12.87;6.87;;;;;;;;;;5116580;28;20569;-73
2022/03/22 06:00:21;;;;;;;10.83;6.40;;;;;;;;;;5117877;28;20304;-74
2022/03/22 06:02:50;;;;;;;12.30;6.70;;;;;;;;;;5117881;28;20283;-74
2022/03/22 06:05:18;;;;;;;12.90;7.33;;;;;;;;;;5116578;28;20216;-74
2022/03/22 06:07:46;;;;;;;13.80;6.33;;;;;;;;;;5119476;28;20728;-74
2022/03/22 06:10:15;;;;;;;11.77;6.60;;;;;;;;;;5115990;28;20217;-73
2022/03/22 06:12:45;;;;;;;11.70;6.37;;;;;;;;;;5118820;28;20639;-74
2022/03/22 06:15:17;;;;;;;13.50;6.97;;;;;;;;;;5115564;28;20253;-74
2022/03/22 06:17:46;;;;;;;10.00;6.03;;;;;;;;;;5120022;28;20672;-72
2022/03/22 06:20:16;;;;;;;10.53;6.27;;;;;;;;;;5118204;28;20216;-73
2022/03/22 06:22:45;;;;;;;7.23;6.07;;;;;;;;;;5115670;28;20280;-73
2022/03/22 06:25:14;;;;;;;14.47;6.30;;;;;;;;;;5115510;28;20200;-71
2022/03/22 06:27:42;;;;;;;9.63;6.57;;;;;;;;;;5118894;28;20281;-73
2022/03/22 06:30:11;;;;;;;9.17;5.53;;;;;;;;;;5116427;28;20283;-73
2022/03/22 06:32:42;;;;;;;11.30;6.53;;;;;;;;;;5115996;28;20656;-65
2022/03/22 06:35:15;;;;;;;12.40;6.37;;;;;;;;;;5112605;28;20235;-70
2022/03/22 06:37:44;;;;;;;10.40;6.77;;;;;;;;;;5113748;28;20627;-69
2022/03/22 06:40:13;;;;;;;16.63;7.20;;;;;;;;;;5114639;28;20299;-70
2022/03/22 06:42:41;;;;;;;14.30;7.47;;;;;;;;;;5113943;28;20227;-70
2022/03/22 06:45:10;;;;;;;12.10;8.03;;;;;;;;;;5107238;28;20576;-70
2022/03/22 06:47:39;;;;;;;15.70;7.50;;;;;;;;;;5103657;28;20212;-70
2022/03/22 06:50:08;;;;;;;10.37;6.97;;;;;;;;;;5104587;28;20228;-70
2022/03/22 06:52:37;;;;;;;13.40;7.47;;;;;;;;;;5113127;28;20284;-69
2022/03/22 06:55:06;;;;;;;15.07;6.80;;;;;;;;;;5114814;28;20748;-70
2022/03/22 06:57:34;;;;;;;12.43;7.13;;;;;;;;;;5104766;28;20226;-70
2022/03/22 07:00:04;;;;;;;11.33;7.53;;;;;;;;;;5110698;28;20264;-69
2022/03/22 07:02:32;;;;;;;12.67;7.23;;;;;;;;;;5106236;28;20239;-70
2022/03/22 07:05:00;;;;;;;8.73;7.10;;;;;;;;;;5113666;28;20208;-70
2022/03/22 07:07:28;;;;;;;11.43;7.20;;;;;;;;;;5116426;27;20239;-70
2022/03/22 07:09:58;;;;;;;14.33;7.93;;;;;;;;;;5104079;28;20726;-70
2022/03/22 07:12:26;;;;;;;17.40;7.63;;;;;;;;;;5110118;28;20285;-72
2022/03/22 07:14:54;;;;;;;14.73;8.47;;;;;;;;;;5110025;28;20701;-71
2022/03/22 07:17:22;;;;;;;8.77;6.97;;;;;;;;;;5111598;28;20258;-72
2022/03/22 07:19:51;;;;;;;12.77;7.10;;;;;;;;;;5114055;28;20284;-71
2022/03/22 07:22:19;;;;;;;9.93;7.30;;;;;;;;;;5114465;28;20220;-72
2022/03/22 07:24:47;;;;;;;9.80;7.03;;;;;;;;;;5111440;28;20735;-74
2022/03/22 07:27:17;;;;;;;17.80;8.30;;;;;;;;;;5113188;28;20754;-71
2022/03/22 07:29:45;;;;;;;19.63;8.20;;;;;;;;;;5117791;28;20225;-71
2022/03/22 07:32:13;;;;;;;19.57;10.07;;;;;;;;;;5118049;28;20646;-71
2022/03/22 07:34:41;;;;;;;17.80;8.03;;;;;;;;;;5118516;28;20200;-70
2022/03/22 07:37:09;;;;;;;19.03;8.20;;;;;;;;;;5108704;28;20293;-71
2022/03/22 07:39:37;;;;;;;9.43;6.73;;;;;;;;;;5104329;28;20233;-72
2022/03/22 07:42:05;;;;;;;10.27;6.60;;;;;;;;;;5110464;28;20249;-73
2022/03/22 07:44:34;;;;;;;16.60;6.97;;;;;;;;;;5112019;28;20236;-73
2022/03/22 07:47:02;;;;;;;11.70;7.30;;;;;;;;;;5110709;28;20248;-73
2022/03/22 07:55:02;;;;;;;11.77;6.47;;;;;;;;;;5108499;28;20766;-73
2022/03/22 07:57:30;;;;;;;9.53;5.90;;;;;;;;;;5106621;28;20231;-73
2022/03/22 07:59:59;;;;;;;6.30;5.23;;;;;;;;;;5109741;28;20228;-73
2022/03/22 08:02:28;;;;;;;12.10;6.13;;;;;;;;;;5101766;28;20213;-73
2022/03/22 08:04:56;;;;;;;10.13;6.03;;;;;;;;;;5110036;28;20212;-73
2022/03/22 08:07:24;;;;;;;10.07;6.00;;;;;;;;;;5101778;28;20613;-73
2022/03/22 08:09:52;;;;;;;9.10;5.80;;;;;;;;;;5105050;28;20225;-74
2022/03/22 08:12:20;;;;;;;16.47;5.33;;;;;;;;;;5105653;28;20225;-73
2022/03/22 08:14:49;;;;;;;12.83;5.63;;;;;;;;;;5105769;28;20822;-73
2022/03/22 08:17:18;;;;;;;7.10;5.20;;;;;;;;;;5109637;28;20256;-73
2022/03/22 08:19:46;;;;;;;7.87;4.83;;;;;;;;;;5111205;28;20280;-73
2022/03/22 08:22:14;;;;;;;7.33;5.20;;;;;;;;;;5115611;28;20256;-73
2022/03/22 08:24:42;;;;;;;10.77;5.47;;;;;;;;;;5101962;28;20717;-73
2022/03/22 08:27:10;;;;;;;26.87;8.77;;;;;;;;;;5108403;28;20720;-73
2022/03/22 08:29:38;;;;;;;11.17;5.90;;;;;;;;;;5102019;28;20798;-73
2022/03/22 08:32:09;;;;;;;7.57;4.77;;;;;;;;;;5109235;28;20615;-73
2022/03/22 08:34:39;;;;;;;8.20;4.77;;;;;;;;;;5106254;28;20236;-73
2022/03/22 08:37:07;;;;;;;5.17;4.63;;;;;;;;;;5112038;28;20261;-73
2022/03/22 08:39:35;;;;;;;7.37;4.97;;;;;;;;;;5112695;28;20561;-73
2022/03/22 08:42:03;;;;;;;9.57;5.13;;;;;;;;;;5111263;28;20312;-73
2022/03/22 08:44:32;;;;;;;10.83;5.00;;;;;;;;;;5101566;28;20289;-73
2022/03/22 08:47:01;;;;;;;10.80;6.17;;;;;;;;;;5108435;28;20299;-73
2022/03/22 08:49:29;;;;;;;8.40;4.73;;;;;;;;;;5109336;28;20582;-73
2022/03/22 08:52:00;;;;;;;6.60;4.50;;;;;;;;;;5116082;28;20224;-73
2022/03/22 08:54:28;;;;;;;9.20;5.10;;;;;;;;;;5103395;28;20626;-73
2022/03/22 08:56:56;;;;;;;8.97;5.07;;;;;;;;;;5112073;28;20217;-73
2022/03/22 08:59:24;;;;;;;8.40;5.07;;;;;;;;;;5104969;28;20640;-73
2022/03/22 09:01:52;;;;;;;12.67;5.10;;;;;;;;;;5109042;28;20669;-73
2022/03/22 09:07:08;;;;;;;17.90;6.17;;;;;;;;;;5110786;28;20256;-73
2022/03/22 09:09:36;;;;;;;8.87;5.20;;;;;;;;;;5105610;28;20237;-73
2022/03/22 09:12:04;;;;;;;28.73;7.73;;;;;;;;;;5101597;28;20280;-73
2022/03/22 09:14:33;;;;;;;28.07;8.07;;;;;;;;;;5109897;28;20218;-73
2022/03/22 09:17:01;;;;;;;19.60;6.87;;;;;;;;;;5108892;28;20244;-73
2022/03/22 09:19:29;;;;;;;34.20;10.43;;;;;;;;;;5106835;28;20664;-73
2022/03/22 09:22:19;;;;;;;7.83;5.07;;;;;;;;;;5108562;28;20710;-73
2022/03/22 09:24:47;;;;;;;8.20;5.33;;;;;;;;;;5100297;28;20247;-73
2022/03/22 09:27:15;;;;;;;7.53;5.20;;;;;;;;;;5110881;28;20257;-73
2022/03/22 09:29:43;;;;;;;7.63;4.77;;;;;;;;;;5102295;28;20248;-73
2022/03/22 09:32:11;;;;;;;10.70;5.70;;;;;;;;;;5104415;28;20631;-73
2022/03/22 09:34:40;;;;;;;7.43;5.13;;;;;;;;;;5100781;28;20229;-73
2022/03/22 09:37:08;;;;;;;10.47;5.83;;;;;;;;;;5114308;28;20303;-73
2022/03/22 09:39:37;;;;;;;10.73;5.33;;;;;;;;;;5110751;28;20231;-75
2022/03/22 09:42:06;;;;;;;9.53;5.70;;;;;;;;;;5100228;28;20658;-73
2022/03/22 09:44:35;;;;;;;10.40;6.57;;;;;;;;;;5103725;28;20244;-73
2022/03/22 09:47:03;;;;;;;9.27;5.70;;;;;;;;;;5112456;28;20260;-75
2022/03/22 09:49:32;;;;;;;7.57;5.47;;;;;;;;;;5111688;28;20224;-73
2022/03/22 09:52:02;;;;;;;10.37;6.10;;;;;;;;;;5102761;28;20648;-75
2022/03/22 09:54:31;;;;;;;7.57;5.60;;;;;;;;;;5111822;28;20284;-73
2022/03/22 09:57:01;;;;;;;7.57;5.53;;;;;;;;;;5104190;28;20770;-73
2022/03/22 09:59:29;;;;;;;10.27;5.93;;;;;;;;;;5109164;28;20658;-74
2022/03/22 10:02:00;;;;;;;12.40;5.30;;;;;;;;;;5117720;28;20236;-73
2022/03/22 10:04:36;;;;;;;8.03;5.33;;;;;;;;;;5117609;28;20232;-73
2022/03/22 10:07:06;;;;;;;8.77;5.33;;;;;;;;;;5117441;28;20232;-73
2022/03/22 10:09:36;;;;;;;10.17;6.10;;;;;;;;;;5117417;28;20213;-73
2022/03/22 10:12:07;;;;;;;8.10;6.13;;;;;;;;;;5117321;28;20228;-74
2022/03/22 10:14:36;;;;;;;7.97;6.23;;;;;;;;;;5117787;28;20247;-73
2022/03/22 10:17:11;;;;;;;10.30;6.50;;;;;;;;;;5108874;28;20263;-74
2022/03/22 10:19:43;;;;;;;9.10;6.83;;;;;;;;;;5118588;28;20208;-74
2022/03/22 10:22:11;;;;;;;8.73;5.47;;;;;;;;;;5121478;28;20270;-73
2022/03/22 10:24:43;;;;;;;9.03;5.80;;;;;;;;;;5121247;28;20201;-73
2022/03/22 10:27:22;;;;;;;12.67;5.87;;;;;;;;;;5112417;28;20344;-73
2022/03/22 10:30:03;;;;;;;13.93;6.23;;;;;;;;;;5112175;28;20288;-75
2022/03/22 10:32:33;;;;;;;9.83;6.23;;;;;;;;;;5106237;28;20235;-73
2022/03/22 10:35:11;;;;;;;10.30;6.10;;;;;;;;;;5103430;28;20232;-73
2022/03/22 10:37:39;;;;;;;8.43;6.27;;;;;;;;;;5111601;28;20239;-74
2022/03/22 10:40:20;;;;;;;6.60;5.73;;;;;;;;;;5105295;28;20280;-73
2022/03/22 10:42:50;;;;;;;7.90;6.40;;;;;;;;;;5101744;28;20256;-74
2022/03/22 10:45:18;;;;;;;8.73;6.03;;;;;;;;;;5108598;28;20252;-74
2022/03/22 10:47:47;;;;;;;8.03;6.17;;;;;;;;;;5113126;28;20243;-73
2022/03/22 10:50:15;;;;;;;8.77;5.93;;;;;;;;;;5111583;28;20284;-73
2022/03/22 10:52:54;;;;;;;8.23;6.40;;;;;;;;;;5103135;28;20239;-73
2022/03/22 10:55:22;;;;;;;11.77;6.47;;;;;;;;;;5108629;28;20220;-73
2022/03/22 10:57:53;;;;;;;10.67;6.13;;;;;;;;;;5104943;28;20261;-73
2022/03/22 11:00:22;;;;;;;7.07;5.80;;;;;;;;;;5111275;28;20284;-73
2022/03/22 11:02:51;;;;;;;11.90;6.40;;;;;;;;;;5105117;28;20220;-73
2022/03/22 11:05:20;;;;;;;7.37;6.00;;;;;;;;;;5107947;28;20220;-74
2022/03/22 11:07:49;;;;;;;11.53;6.67;;;;;;;;;;5105533;28;20202;-73
2022/03/22 11:10:18;;;;;;;9.50;6.23;;;;;;;;;;5111151;28;20236;-74
2022/03/22 11:12:46;;;;;;;8.20;5.60;;;;;;;;;;5113838;28;20220;-73
2022/03/22 11:15:16;;;;;;;8.00;6.17;;;;;;;;;;5106139;28;20256;-73
2022/03/22 11:17:44;;;;;;;9.33;6.57;;;;;;;;;;5114550;28;20209;-74
2022/03/22 11:20:14;;;;;;;10.10;6.80;;;;;;;;;;5115398;28;20285;-74
2022/03/22 11:22:50;;;;;;;12.33;6.43;;;;;;;;;;5105104;28;20313;-74
2022/03/22 11:25:19;;;;;;;9.63;6.33;;;;;;;;;;5106455;28;20649;-74
2022/03/22 11:27:58;;;;;;;8.90;5.63;;;;;;;;;;5114216;28;20619;-75
2022/03/22 11:30:29;;;;;;;7.97;6.30;;;;;;;;;;5106141;28;20680;-73
2022/03/22 11:35:47;;;;;;;9.70;6.03;;;;;;;;;;5113309;28;20217;-74
2022/03/22 11:38:35;;;;;;;11.73;5.87;;;;;;;;;;5103609;28;20265;-74
2022/03/22 11:43:49;;;;;;;8.33;5.67;;;;;;;;;;5112269;28;20309;-74
2022/03/22 11:46:18;;;;;;;7.13;5.43;;;;;;;;;;5115010;28;20217;-75
2022/03/22 11:48:51;;;;;;;7.90;6.27;;;;;;;;;;5109430;28;20198;-74
2022/03/22 11:51:23;;;;;;;8.73;6.03;;;;;;;;;;5111546;28;20255;-74
2022/03/22 11:53:51;;;;;;;8.20;6.03;;;;;;;;;;5113713;28;20228;-73
2022/03/22 11:56:26;;;;;;;8.53;6.23;;;;;;;;;;5107668;28;20307;-73
2022/03/22 11:58:57;;;;;;;10.70;6.30;;;;;;;;;;5110084;28;20259;-74
2022/03/22 12:01:36;;;;;;;10.90;6.60;;;;;;;;;;5107503;28;20205;-73
2022/03/22 12:04:14;;;;;;;8.00;5.97;;;;;;;;;;5103772;28;20756;-73
2022/03/22 12:06:42;;;;;;;10.67;6.03;;;;;;;;;;5101794;28;20245;-74
2022/03/22 12:09:10;;;;;;;8.43;5.80;;;;;;;;;;5101809;28;20642;-72
2022/03/22 12:11:48;;;;;;;7.93;5.40;;;;;;;;;;5101756;28;20616;-74
2022/03/22 12:14:26;;;;;;;8.40;6.50;;;;;;;;;;5110386;28;20208;-73
2022/03/22 12:16:56;;;;;;;10.37;6.57;;;;;;;;;;5109007;28;20259;-74
2022/03/22 12:19:25;;;;;;;10.37;5.83;;;;;;;;;;5104612;28;20718;-74
2022/03/22 12:21:53;;;;;;;10.23;5.83;;;;;;;;;;5109291;28;20232;-74
2022/03/22 12:24:22;;;;;;;9.83;6.60;;;;;;;;;;5101781;28;20313;-74
2022/03/22 12:26:50;;;;;;;9.17;6.00;;;;;;;;;;5101567;28;20222;-74
2022/03/22 12:29:18;;;;;;;7.23;5.90;;;;;;;;;;5103585;28;20237;-74
2022/03/22 12:31:50;;;;;;;9.63;5.90;;;;;;;;;;5102482;28;20746;-74
2022/03/22 12:34:20;;;;;;;9.90;6.33;;;;;;;;;;5108261;28;20255;-73
2022/03/22 12:36:48;;;;;;;9.20;6.03;;;;;;;;;;5104576;28;20225;-74
2022/03/22 12:39:16;;;;;;;7.97;5.70;;;;;;;;;;5113506;28;20208;-74
2022/03/22 12:41:44;;;;;;;8.83;6.73;;;;;;;;;;5111615;28;20293;-74
2022/03/22 12:44:13;;;;;;;8.10;6.03;;;;;;;;;;5109470;28;20249;-74
2022/03/22 12:46:41;;;;;;;10.37;6.27;;;;;;;;;;5103788;28;20300;-74
2022/03/22 12:49:09;;;;;;;9.63;6.23;;;;;;;;;;5111010;28;20237;-73
2022/03/22 12:51:39;;;;;;;11.33;6.37;;;;;;;;;;5113072;28;20232;-73
2022/03/22 12:54:08;;;;;;;9.17;6.80;;;;;;;;;;5112642;28;20236;-74
2022/03/22 12:56:36;;;;;;;9.67;6.77;;;;;;;;;;5106234;28;20253;-74
2022/03/22 12:59:24;;;;;;;14.30;6.77;;;;;;;;;;5108502;28;20221;-73
2022/03/22 13:01:57;;;;;;;10.30;5.67;;;;;;;;;;5101552;28;20202;-73
2022/03/22 13:04:26;;;;;;;6.73;5.63;;;;;;;;;;5109552;28;20232;-73
2022/03/22 13:07:02;;;;;;;10.07;6.33;;;;;;;;;;5101055;28;20220;-72
2022/03/22 13:12:16;;;;;;;11.23;6.43;;;;;;;;;;5111707;28;20254;-73
2022/03/22 13:15:04;;;;;;;7.17;6.17;;;;;;;;;;5109156;28;20194;-72
2022/03/22 13:17:34;;;;;;;11.43;6.10;;;;;;;;;;5111054;28;20233;-73
2022/03/22 13:20:11;;;;;;;10.13;6.30;;;;;;;;;;5116800;28;20197;-73
2022/03/22 13:22:50;;;;;;;7.83;5.37;;;;;;;;;;5100664;28;20275;-74
2022/03/22 13:25:19;;;;;;;8.83;6.03;;;;;;;;;;5108765;28;20307;-75
2022/03/22 13:27:53;;;;;;;9.03;6.20;;;;;;;;;;5100524;28;20236;-74
2022/03/22 13:30:21;;;;;;;7.37;5.50;;;;;;;;;;5108392;28;20638;-74
2022/03/22 13:32:50;;;;;;;22.47;7.70;;;;;;;;;;5109600;28;20244;-73
2022/03/22 13:35:18;;;;;;;24.33;9.00;;;;;;;;;;5111187;28;20614;-73
2022/03/22 13:37:48;;;;;;;13.10;7.00;;;;;;;;;;5101879;28;20287;-72
2022/03/22 13:40:17;;;;;;;6.73;5.70;;;;;;;;;;5100682;28;20280;-73
2022/03/22 13:42:55;;;;;;;6.30;5.43;;;;;;;;;;5108981;28;20272;-74
2022/03/22 13:45:23;;;;;;;6.90;6.17;;;;;;;;;;5109313;28;20715;-73
2022/03/22 13:47:54;;;;;;;8.40;5.57;;;;;;;;;;5102956;28;20229;-73
2022/03/22 13:50:23;;;;;;;7.63;5.80;;;;;;;;;;5101266;28;20236;-73
2022/03/22 13:53:04;;;;;;;9.03;5.57;;;;;;;;;;5109622;28;20725;-74
2022/03/22 13:55:35;;;;;;;9.37;6.13;;;;;;;;;;5104726;28;20224;-73
2022/03/22 13:58:08;;;;;;;10.17;5.73;;;;;;;;;;5114123;28;20200;-73
2022/03/22 14:00:49;;;;;;;7.10;6.00;;;;;;;;;;5115869;28;20220;-74
2022/03/22 14:03:17;;;;;;;8.67;5.73;;;;;;;;;;5113700;28;20207;-73
2022/03/22 14:05:47;;;;;;;9.07;6.07;;;;;;;;;;5118220;28;20216;-73
2022/03/22 14:08:16;;;;;;;7.63;5.20;;;;;;;;;;5106285;28;20237;-74
2022/03/22 14:10:46;;;;;;;7.80;6.10;;;;;;;;;;5104311;28;20276;-75
2022/03/22 14:13:15;;;;;;;11.10;6.20;;;;;;;;;;5113375;28;20250;-73
2022/03/22 14:15:43;;;;;;;29.83;10.07;;;;;;;;;;5111420;28;20255;-73
2022/03/22 14:18:12;;;;;;;53.10;15.53;;;;;;;;;;5119507;28;20235;-73
2022/03/22 14:20:40;;;;;;;13.20;6.93;;;;;;;;;;5115209;28;20630;-73
2022/03/22 14:23:10;;;;;;;9.70;6.13;;;;;;;;;;5117641;28;20289;-74
2022/03/22 14:25:38;;;;;;;10.37;6.50;;;;;;;;;;5117666;28;20726;-74
2022/03/22 14:28:07;;;;;;;10.87;6.77;;;;;;;;;;5118395;28;20288;-73
2022/03/22 14:30:36;;;;;;;7.87;6.20;;;;;;;;;;5116732;28;20228;-75
2022/03/22 14:33:06;;;;;;;7.80;5.93;;;;;;;;;;5119796;28;20248;-73
2022/03/22 14:35:54;;;;;;;8.33;5.97;;;;;;;;;;5117517;28;20296;-73
2022/03/22 14:38:24;;;;;;;8.97;5.97;;;;;;;;;;5118762;28;20654;-74
2022/03/22 14:40:53;;;;;;;6.90;5.27;;;;;;;;;;5119401;28;20201;-74
2022/03/22 14:43:24;;;;;;;9.30;6.10;;;;;;;;;;5116265;28;20201;-73
2022/03/22 14:45:54;;;;;;;9.40;6.80;;;;;;;;;;5114303;28;20248;-74
2022/03/22 14:48:23;;;;;;;13.50;7.00;;;;;;;;;;5117044;28;20227;-75
2022/03/22 14:50:52;;;;;;;11.03;6.60;;;;;;;;;;5116139;28;20235;-74
2022/03/22 14:58:54;;;;;;;9.53;6.40;;;;;;;;;;5112265;28;20229;-75
2022/03/22 15:01:23;;;;;;;8.80;5.93;;;;;;;;;;5116131;28;20566;-76
2022/03/22 15:03:53;;;;;;;10.97;7.20;;;;;;;;;;5114147;28;20225;-76
2022/03/22 15:06:23;;;;;;;11.17;7.27;;;;;;;;;;5115444;28;20220;-77
2022/03/22 15:08:52;;;;;;;10.20;6.40;;;;;;;;;;5114951;28;20208;-76
2022/03/22 15:11:21;;;;;;;8.77;6.70;;;;;;;;;;5115462;28;20204;-76
2022/03/22 15:13:49;;;;;;;8.17;6.50;;;;;;;;;;5115777;28;20667;-75
2022/03/22 15:16:19;;;;;;;9.67;6.63;;;;;;;;;;5114943;28;20296;-76
2022/03/22 15:18:48;;;;;;;10.93;7.30;;;;;;;;;;5116712;28;20670;-76
2022/03/22 15:21:16;;;;;;;11.63;7.07;;;;;;;;;;5117805;28;20548;-76
2022/03/22 15:23:45;;;;;;;7.97;6.17;;;;;;;;;;5118164;28;20570;-76
2022/03/22 15:26:14;;;;;;;6.83;5.93;;;;;;;;;;5117945;28;20277;-74
2022/03/22 15:28:48;;;;;;;8.77;6.60;;;;;;;;;;5117681;28;20211;-75
2022/03/22 15:31:20;;;;;;;11.30;6.50;;;;;;;;;;5116265;28;20197;-74
2022/03/22 15:33:49;;;;;;;9.40;6.27;;;;;;;;;;5113433;28;20223;-75